createdAt,value
2022-08-03T00:00:26.451Z,28.80
2022-08-03T00:02:53.550Z,28.80
2022-08-03T00:05:20.702Z,28.70
2022-08-03T00:07:48.430Z,28.80
2022-08-03T00:10:16.883Z,28.70
2022-08-03T00:12:43.837Z,28.60
2022-08-03T00:15:16.315Z,28.60
2022-08-03T00:17:51.981Z,28.60
2022-08-03T00:20:20.074Z,28.60
2022-08-03T00:22:46.967Z,28.50
2022-08-03T00:25:13.798Z,28.60
2022-08-03T00:27:40.687Z,28.50
2022-08-03T00:30:08.611Z,28.50
2022-08-03T00:32:35.411Z,28.50
2022-08-03T00:35:08.010Z,28.50
2022-08-03T00:37:41.060Z,28.50
2022-08-03T00:40:10.887Z,28.40
2022-08-03T00:42:47.787Z,28.40
2022-08-03T00:45:14.796Z,28.40
2022-08-03T00:47:41.707Z,28.40
2022-08-03T00:50:09.087Z,28.30
2022-08-03T00:52:36.326Z,28.30
2022-08-03T00:55:04.148Z,28.20
2022-08-03T00:57:33.042Z,28.30
2022-08-03T01:00:00.297Z,28.30
2022-08-03T01:02:28.778Z,28.20
2022-08-03T01:04:56.619Z,28.20
2022-08-03T01:07:50.382Z,28.20
2022-08-03T01:10:46.743Z,28.20
2022-08-03T01:14:01.433Z,28.20
2022-08-03T01:16:36.815Z,28.10
2022-08-03T01:19:44.855Z,28.20
2022-08-03T01:22:37.279Z,28.10
2022-08-03T01:25:14.760Z,28.10
2022-08-03T01:28:06.922Z,28.10
2022-08-03T01:30:37.699Z,28.10
2022-08-03T01:33:17.792Z,28.10
2022-08-03T01:35:57.849Z,28.10
2022-08-03T01:38:33.470Z,28.10
2022-08-03T01:41:07.310Z,28.00
2022-08-03T01:44:28.487Z,28.10
2022-08-03T01:46:23.582Z,28.10
2022-08-03T01:48:51.973Z,28.00
2022-08-03T01:51:21.003Z,28.10
2022-08-03T01:53:50.159Z,28.00
2022-08-03T01:56:19.206Z,28.00
2022-08-03T01:58:48.430Z,28.00
2022-08-03T02:01:16.815Z,27.90
2022-08-03T02:04:00.226Z,27.90
2022-08-03T02:07:02.841Z,27.90
2022-08-03T02:09:20.130Z,27.80
2022-08-03T02:11:48.239Z,27.80
2022-08-03T02:14:15.967Z,27.60
2022-08-03T02:16:44.799Z,27.50
2022-08-03T02:19:12.132Z,27.40
2022-08-03T02:21:57.249Z,27.40
2022-08-03T02:24:26.985Z,27.30
2022-08-03T02:26:56.085Z,27.30
2022-08-03T02:29:40.354Z,27.20
2022-08-03T02:32:12.604Z,27.20
2022-08-03T02:34:42.383Z,27.10
2022-08-03T02:37:11.703Z,27.00
2022-08-03T02:39:40.650Z,26.90
2022-08-03T02:42:09.715Z,27.00
2022-08-03T02:44:40.464Z,27.00
2022-08-03T02:47:10.944Z,27.10
2022-08-03T02:49:49.785Z,26.90
2022-08-03T02:52:20.824Z,27.10
2022-08-03T02:54:51.135Z,27.00
2022-08-03T02:57:20.093Z,27.00
2022-08-03T02:59:48.334Z,27.00
2022-08-03T03:02:17.331Z,27.10
2022-08-03T03:05:51.131Z,27.10
2022-08-03T03:07:34.689Z,27.10
2022-08-03T03:10:17.266Z,27.10
2022-08-03T03:12:45.550Z,27.10
2022-08-03T03:15:12.456Z,27.00
2022-08-03T03:17:39.752Z,27.10
2022-08-03T03:20:08.201Z,27.10
2022-08-03T03:22:36.243Z,27.00
2022-08-03T03:25:03.572Z,27.00
2022-08-03T03:27:31.059Z,27.10
2022-08-03T03:29:59.623Z,27.00
2022-08-03T03:32:30.353Z,26.90
2022-08-03T03:34:59.269Z,26.80
2022-08-03T03:37:29.350Z,26.60
2022-08-03T03:39:56.396Z,26.40
2022-08-03T03:42:25.022Z,26.30
2022-08-03T03:44:52.027Z,26.10
2022-08-03T03:47:19.004Z,26.00
2022-08-03T03:50:00.233Z,26.10
2022-08-03T03:52:27.106Z,25.90
2022-08-03T03:54:58.911Z,26.00
2022-08-03T03:57:27.836Z,26.00
2022-08-03T03:59:54.849Z,25.80
2022-08-03T04:02:21.834Z,25.80
2022-08-03T04:05:07.118Z,25.80
2022-08-03T04:08:05.337Z,25.70
2022-08-03T04:10:54.582Z,25.80
2022-08-03T04:13:22.730Z,25.70
2022-08-03T04:15:50.776Z,25.80
2022-08-03T04:18:19.700Z,25.80
2022-08-03T04:20:48.858Z,25.90
2022-08-03T04:23:21.145Z,25.80
2022-08-03T04:25:50.450Z,25.90
2022-08-03T04:28:31.202Z,25.90
2022-08-03T04:31:00.205Z,25.90
2022-08-03T04:33:29.717Z,25.90
2022-08-03T04:36:02.072Z,25.90
2022-08-03T04:38:36.673Z,25.90
2022-08-03T04:41:03.856Z,25.80
2022-08-03T04:43:33.146Z,25.80
2022-08-03T04:46:01.553Z,25.80
2022-08-03T04:48:29.376Z,25.80
2022-08-03T04:50:56.494Z,25.80
2022-08-03T04:53:23.458Z,25.90
2022-08-03T04:55:50.400Z,26.00
2022-08-03T04:58:17.281Z,26.10
2022-08-03T05:00:45.681Z,26.30
2022-08-03T05:03:20.274Z,26.40
2022-08-03T05:05:52.460Z,26.60
2022-08-03T05:08:20.677Z,26.80
2022-08-03T05:10:55.817Z,27.00
2022-08-03T05:13:25.738Z,27.20
2022-08-03T05:15:52.848Z,27.30
2022-08-03T05:18:19.967Z,27.30
2022-08-03T05:20:47.049Z,27.60
2022-08-03T05:23:13.934Z,27.70
2022-08-03T05:25:49.789Z,27.80
2022-08-03T05:28:17.027Z,27.90
2022-08-03T05:30:43.931Z,27.90
2022-08-03T05:33:11.378Z,28.10
2022-08-03T05:36:01.347Z,28.20
2022-08-03T05:38:28.706Z,28.20
2022-08-03T05:41:20.495Z,28.30
2022-08-03T05:43:45.119Z,28.30
2022-08-03T05:46:13.188Z,28.40
2022-08-03T05:48:40.723Z,28.50
2022-08-03T05:51:11.544Z,28.50
2022-08-03T05:53:42.473Z,28.50
2022-08-03T05:56:14.666Z,28.70
2022-08-03T05:58:48.415Z,28.80
2022-08-03T06:01:16.925Z,28.90
2022-08-03T06:03:44.471Z,28.90
2022-08-03T06:06:11.810Z,29.00
2022-08-03T06:08:39.397Z,29.10
2022-08-03T06:11:06.482Z,29.20
2022-08-03T06:13:33.579Z,29.30
2022-08-03T06:16:00.553Z,29.30
2022-08-03T06:18:27.423Z,29.50
2022-08-03T06:20:55.134Z,29.60
2022-08-03T06:23:22.415Z,29.70
2022-08-03T06:25:49.400Z,29.80
2022-08-03T06:28:52.390Z,30.00
2022-08-03T06:31:06.576Z,30.00
2022-08-03T06:33:48.483Z,30.10
2022-08-03T06:36:20.719Z,30.30
2022-08-03T06:38:47.818Z,30.40
2022-08-03T06:41:14.754Z,30.50
2022-08-03T06:44:03.830Z,30.60
2022-08-03T06:46:29.243Z,30.70
2022-08-03T06:48:56.725Z,30.90
2022-08-03T06:52:06.262Z,30.90
2022-08-03T06:54:10.967Z,31.00
2022-08-03T06:56:37.829Z,31.20
2022-08-03T06:59:04.785Z,31.10
2022-08-03T07:01:31.674Z,31.30
2022-08-03T07:03:58.836Z,31.40
2022-08-03T07:06:25.724Z,31.50
2022-08-03T07:08:56.483Z,31.60
2022-08-03T07:11:25.914Z,31.50
2022-08-03T07:13:52.789Z,31.60
2022-08-03T07:16:20.077Z,31.70
2022-08-03T07:18:46.878Z,31.70
2022-08-03T07:21:13.831Z,31.80
2022-08-03T07:23:40.681Z,31.80
2022-08-03T07:26:07.596Z,31.90
2022-08-03T07:28:34.579Z,32.00
2022-08-03T07:31:01.400Z,32.10
2022-08-03T07:33:28.304Z,32.30
2022-08-03T07:35:55.177Z,32.40
2022-08-03T07:38:21.975Z,32.60
2022-08-03T07:40:48.947Z,32.80
2022-08-03T07:43:15.752Z,32.90
2022-08-03T07:45:42.633Z,33.00
2022-08-03T07:48:12.403Z,33.10
2022-08-03T07:50:39.529Z,33.20
2022-08-03T07:53:06.403Z,33.20
2022-08-03T07:55:33.539Z,33.30
2022-08-03T07:58:09.900Z,33.30
2022-08-03T08:00:37.022Z,33.40
2022-08-03T08:03:04.788Z,33.50
2022-08-03T08:05:31.979Z,33.60
2022-08-03T08:07:58.985Z,33.60
2022-08-03T08:10:25.918Z,33.60
2022-08-03T08:12:52.890Z,33.60
2022-08-03T08:15:19.773Z,33.70
2022-08-03T08:17:52.455Z,33.80
2022-08-03T08:20:30.593Z,33.80
2022-08-03T08:23:08.860Z,33.90
2022-08-03T08:25:52.648Z,34.00
2022-08-03T08:28:29.785Z,34.10
2022-08-03T08:31:00.387Z,34.10
2022-08-03T08:33:37.255Z,34.20
2022-08-03T08:36:15.544Z,34.40
2022-08-03T08:38:44.624Z,34.40
2022-08-03T08:41:12.844Z,34.50
2022-08-03T08:43:40.104Z,34.60
2022-08-03T08:46:08.555Z,34.60
2022-08-03T08:48:41.523Z,34.70
2022-08-03T08:51:10.871Z,34.80
2022-08-03T08:53:40.426Z,34.80
2022-08-03T08:56:10.302Z,34.90
2022-08-03T08:58:47.156Z,34.80
2022-08-03T09:01:14.083Z,34.90
2022-08-03T09:03:41.680Z,34.70
2022-08-03T09:06:08.560Z,34.90
2022-08-03T09:08:35.755Z,34.70
2022-08-03T09:11:02.668Z,34.90
2022-08-03T09:13:31.108Z,34.90
2022-08-03T09:16:12.676Z,35.00
2022-08-03T09:18:41.085Z,35.00
2022-08-03T09:21:33.338Z,35.20
2022-08-03T09:24:05.417Z,35.10
2022-08-03T09:26:35.137Z,35.00
2022-08-03T09:29:07.165Z,35.10
2022-08-03T09:31:46.385Z,35.40
2022-08-03T09:34:17.043Z,35.50
2022-08-03T09:36:46.726Z,35.60
2022-08-03T09:39:21.530Z,35.50
2022-08-03T09:42:15.054Z,35.50
2022-08-03T09:44:47.367Z,35.60
2022-08-03T09:47:17.979Z,35.60
2022-08-03T09:50:01.396Z,35.60
2022-08-03T09:52:38.968Z,35.60
2022-08-03T09:56:32.513Z,35.70
2022-08-03T09:58:12.806Z,35.60
2022-08-03T10:01:00.106Z,35.70
2022-08-03T10:03:36.096Z,35.80
2022-08-03T10:06:22.981Z,36.00
2022-08-03T10:09:25.191Z,35.90
2022-08-03T10:11:52.123Z,36.20
2022-08-03T10:14:19.847Z,36.20
2022-08-03T10:16:48.239Z,36.30
2022-08-03T10:19:15.781Z,36.20
2022-08-03T10:21:50.805Z,36.40
2022-08-03T10:24:24.354Z,36.40
2022-08-03T10:26:53.702Z,36.40
2022-08-03T10:29:27.427Z,36.50
2022-08-03T10:31:58.742Z,36.60
2022-08-03T10:34:35.455Z,36.40
2022-08-03T10:37:06.675Z,36.40
2022-08-03T10:39:33.790Z,36.50
2022-08-03T10:42:02.922Z,36.50
2022-08-03T10:44:40.219Z,36.60
2022-08-03T10:47:10.519Z,36.60
2022-08-03T10:49:38.369Z,36.60
2022-08-03T10:52:13.653Z,36.60
2022-08-03T10:55:11.229Z,36.60
2022-08-03T10:57:58.576Z,36.70
2022-08-03T11:00:27.584Z,36.70
2022-08-03T11:03:16.899Z,36.80
2022-08-03T11:05:53.852Z,36.70
2022-08-03T11:08:26.603Z,36.70
2022-08-03T11:10:59.556Z,36.60
2022-08-03T11:13:30.884Z,36.60
2022-08-03T11:16:02.998Z,36.60
2022-08-03T11:18:31.856Z,36.60
2022-08-03T11:21:00.372Z,36.70
2022-08-03T11:24:02.642Z,36.70
2022-08-03T11:26:33.077Z,36.60
2022-08-03T11:29:29.279Z,36.60
2022-08-03T11:31:56.420Z,36.70
2022-08-03T11:34:24.532Z,36.70
2022-08-03T11:37:22.268Z,36.70
2022-08-03T11:39:51.366Z,36.80
2022-08-03T11:42:24.061Z,36.90
2022-08-03T11:44:52.387Z,36.90
2022-08-03T11:47:21.291Z,36.90
2022-08-03T11:49:49.534Z,36.90
2022-08-03T11:52:19.597Z,36.90
2022-08-03T11:54:57.189Z,36.90
2022-08-03T11:59:17.275Z,36.90
2022-08-03T12:00:30.506Z,36.80
2022-08-03T12:03:06.191Z,36.70
2022-08-03T12:05:37.587Z,36.70
2022-08-03T12:08:06.891Z,36.70
2022-08-03T12:10:34.299Z,36.80
2022-08-03T12:13:02.344Z,36.80
2022-08-03T12:15:35.709Z,36.80
2022-08-03T12:18:04.926Z,36.90
2022-08-03T12:20:38.060Z,36.90
2022-08-03T12:23:07.073Z,36.80
2022-08-03T12:25:39.590Z,36.90
2022-08-03T12:28:30.453Z,37.00
2022-08-03T12:31:06.392Z,36.90
2022-08-03T12:33:53.740Z,36.80
2022-08-03T12:36:20.640Z,36.90
2022-08-03T12:38:57.368Z,36.90
2022-08-03T12:41:35.408Z,36.90
2022-08-03T12:44:07.514Z,36.90
2022-08-03T12:46:47.098Z,36.90
2022-08-03T12:49:17.976Z,36.90
2022-08-03T12:51:44.834Z,36.90
2022-08-03T12:54:24.863Z,36.80
2022-08-03T12:57:04.653Z,36.80
2022-08-03T12:59:35.303Z,36.90
2022-08-03T13:02:23.743Z,37.00
2022-08-03T13:04:52.618Z,37.00
2022-08-03T13:07:20.667Z,37.00
2022-08-03T13:09:56.345Z,37.10
2022-08-03T13:12:25.602Z,37.00
2022-08-03T13:14:55.712Z,37.00
2022-08-03T13:17:22.849Z,37.00
2022-08-03T13:19:50.416Z,36.80
2022-08-03T13:22:24.098Z,36.90
2022-08-03T13:24:57.777Z,36.90
2022-08-03T13:28:04.598Z,37.00
2022-08-03T13:30:17.895Z,37.10
2022-08-03T13:32:58.715Z,37.10
2022-08-03T13:35:25.856Z,37.20
2022-08-03T13:37:52.768Z,37.30
2022-08-03T13:40:19.772Z,37.40
2022-08-03T13:42:50.623Z,37.40
2022-08-03T13:45:17.782Z,37.60
2022-08-03T13:47:44.735Z,37.50
2022-08-03T13:50:11.682Z,37.60
2022-08-03T13:52:38.538Z,37.80
2022-08-03T13:55:07.109Z,37.80
2022-08-03T13:58:11.639Z,37.80
2022-08-03T14:00:28.563Z,37.80
2022-08-03T14:03:16.383Z,37.90
2022-08-03T14:05:44.253Z,38.00
2022-08-03T14:08:12.204Z,38.00
2022-08-03T14:10:42.359Z,38.00
2022-08-03T14:13:10.589Z,38.20
2022-08-03T14:15:38.678Z,38.20
2022-08-03T14:18:15.702Z,38.20
2022-08-03T14:20:54.272Z,38.30
2022-08-03T14:23:23.077Z,38.30
2022-08-03T14:25:51.844Z,38.40
2022-08-03T14:28:22.983Z,38.30
2022-08-03T14:30:54.203Z,38.30
2022-08-03T14:33:21.086Z,38.50
2022-08-03T14:35:48.442Z,38.30
2022-08-03T14:38:15.594Z,38.50
2022-08-03T14:40:42.813Z,38.40
2022-08-03T14:43:09.803Z,38.50
2022-08-03T14:45:36.762Z,38.50
2022-08-03T14:50:29.739Z,38.60
2022-08-03T14:50:56.738Z,38.50
2022-08-03T14:53:24.243Z,38.60
2022-08-03T14:55:52.900Z,38.70
2022-08-03T14:58:21.845Z,38.50
2022-08-03T15:00:50.767Z,38.50
2022-08-03T15:03:21.496Z,38.50
2022-08-03T15:05:48.653Z,38.60
2022-08-03T15:08:15.947Z,38.60
2022-08-03T15:10:44.133Z,38.70
2022-08-03T15:13:16.116Z,38.60
2022-08-03T15:15:43.236Z,38.80
2022-08-03T15:18:10.195Z,38.70
2022-08-03T15:20:44.501Z,38.80
2022-08-03T15:23:13.985Z,38.80
2022-08-03T15:26:07.092Z,38.80
2022-08-03T15:28:27.734Z,38.90
2022-08-03T15:30:54.682Z,38.80
2022-08-03T15:33:21.778Z,38.80
2022-08-03T15:35:49.803Z,39.00
2022-08-03T15:38:17.035Z,38.90
2022-08-03T15:40:43.927Z,39.20
2022-08-03T15:43:11.322Z,39.00
2022-08-03T15:45:38.194Z,39.20
2022-08-03T15:48:06.225Z,39.20
2022-08-03T15:50:33.208Z,39.50
2022-08-03T15:53:00.436Z,39.40
2022-08-03T15:55:27.811Z,39.40
2022-08-03T15:59:10.193Z,39.40
2022-08-03T16:00:43.120Z,39.40
2022-08-03T16:03:10.860Z,39.20
2022-08-03T16:05:39.019Z,39.40
2022-08-03T16:08:09.154Z,39.30
2022-08-03T16:10:40.696Z,39.40
2022-08-03T16:13:08.202Z,39.30
2022-08-03T16:15:38.726Z,39.20
2022-08-03T16:18:06.942Z,39.60
2022-08-03T16:20:35.383Z,39.50
2022-08-03T16:23:10.752Z,39.40
2022-08-03T16:25:44.426Z,39.50
2022-08-03T16:28:17.132Z,39.20
2022-08-03T16:30:46.466Z,39.20
2022-08-03T16:33:17.249Z,39.30
2022-08-03T16:35:46.140Z,39.00
2022-08-03T16:38:18.631Z,38.80
2022-08-03T16:40:47.376Z,38.70
2022-08-03T16:43:18.002Z,38.50
2022-08-03T16:45:46.792Z,38.30
2022-08-03T16:48:17.294Z,38.20
2022-08-03T16:50:44.988Z,37.90
2022-08-03T16:53:16.343Z,37.90
2022-08-03T16:55:53.167Z,37.80
2022-08-03T16:58:41.704Z,37.60
2022-08-03T17:01:22.245Z,37.40
2022-08-03T17:04:02.025Z,37.30
2022-08-03T17:06:36.401Z,37.20
2022-08-03T17:09:09.843Z,37.10
2022-08-03T17:11:43.985Z,36.80
2022-08-03T17:14:14.832Z,36.80
2022-08-03T17:16:52.100Z,36.60
2022-08-03T17:19:25.923Z,36.60
2022-08-03T17:22:04.102Z,36.50
2022-08-03T17:24:41.312Z,36.40
2022-08-03T17:28:41.728Z,36.30
2022-08-03T17:30:13.341Z,36.10
2022-08-03T17:32:56.924Z,36.00
2022-08-03T17:35:36.725Z,35.60
2022-08-03T17:38:10.508Z,35.40
2022-08-03T17:40:48.067Z,35.30
2022-08-03T17:44:13.707Z,35.10
2022-08-03T17:46:07.817Z,35.00
2022-08-03T17:48:41.400Z,34.80
2022-08-03T17:51:30.695Z,34.70
2022-08-03T17:54:18.059Z,34.50
2022-08-03T17:56:48.282Z,34.30
2022-08-03T17:59:50.869Z,34.30
2022-08-03T18:02:55.046Z,34.30
2022-08-03T18:05:25.490Z,34.40
2022-08-03T18:08:16.919Z,34.30
2022-08-03T18:10:49.781Z,34.40
2022-08-03T18:13:30.638Z,34.30
2022-08-03T18:16:02.553Z,34.30
2022-08-03T18:18:44.201Z,34.30
2022-08-03T18:21:17.187Z,34.20
2022-08-03T18:23:46.017Z,34.20
2022-08-03T18:26:17.510Z,34.20
2022-08-03T18:28:44.760Z,34.10
2022-08-03T18:31:59.961Z,34.10
2022-08-03T18:34:16.367Z,34.10
2022-08-03T18:36:51.562Z,34.00
2022-08-03T18:39:21.958Z,34.00
2022-08-03T18:41:48.801Z,33.90
2022-08-03T18:44:45.613Z,33.90
2022-08-03T18:47:07.021Z,33.80
2022-08-03T18:50:05.431Z,33.80
2022-08-03T18:52:53.191Z,33.70
2022-08-03T18:55:39.223Z,33.70
2022-08-03T18:58:52.376Z,33.60
2022-08-03T19:01:57.511Z,33.50
2022-08-03T19:04:46.829Z,33.50
2022-08-03T19:07:22.182Z,33.40
2022-08-03T19:09:55.622Z,33.30
2022-08-03T19:12:39.509Z,33.30
2022-08-03T19:15:12.957Z,33.20
2022-08-03T19:17:53.016Z,33.10
2022-08-03T19:20:25.979Z,33.20
2022-08-03T19:22:54.596Z,33.10
2022-08-03T19:25:34.398Z,33.10
2022-08-03T19:28:06.201Z,33.10
2022-08-03T19:30:46.172Z,33.00
2022-08-03T19:33:20.827Z,33.00
2022-08-03T19:35:54.956Z,32.90
2022-08-03T19:38:28.501Z,32.90
2022-08-03T19:41:02.568Z,32.90
2022-08-03T19:43:49.291Z,32.80
2022-08-03T19:46:22.954Z,32.70
2022-08-03T19:49:16.013Z,32.70
2022-08-03T19:52:00.968Z,32.60
2022-08-03T19:54:36.546Z,32.60
2022-08-03T19:57:17.621Z,32.50
2022-08-03T19:59:49.881Z,32.50
2022-08-03T20:02:26.966Z,32.40
2022-08-03T20:04:59.759Z,32.30
2022-08-03T20:07:28.981Z,32.30
2022-08-03T20:09:59.684Z,32.30
2022-08-03T20:12:31.298Z,32.10
2022-08-03T20:15:01.861Z,32.10
2022-08-03T20:17:57.050Z,32.00
2022-08-03T20:20:21.070Z,31.90
2022-08-03T20:22:57.618Z,31.90
2022-08-03T20:25:38.349Z,31.80
2022-08-03T20:28:13.955Z,31.80
2022-08-03T20:30:46.439Z,31.70
2022-08-03T20:33:18.673Z,31.60
2022-08-03T20:35:49.280Z,31.60
2022-08-03T20:41:05.364Z,31.50
2022-08-03T20:43:34.935Z,31.60
2022-08-03T20:46:32.680Z,31.40
2022-08-03T20:48:49.187Z,31.40
2022-08-03T20:51:19.988Z,31.30
2022-08-03T20:53:59.809Z,31.50
2022-08-03T20:56:34.419Z,31.30
2022-08-03T20:59:06.065Z,31.20
2022-08-03T21:01:36.350Z,31.20
2022-08-03T21:04:09.339Z,31.30
2022-08-03T21:06:41.807Z,31.30
2022-08-03T21:09:18.439Z,31.10
2022-08-03T21:11:50.463Z,31.10
2022-08-03T21:13:07.170Z,31.50
2022-08-03T21:14:23.368Z,31.10
2022-08-03T21:16:52.049Z,31.10
2022-08-03T21:19:21.405Z,31.10
2022-08-03T21:21:49.527Z,31.00
2022-08-03T21:24:17.995Z,31.00
2022-08-03T21:26:47.551Z,30.90
2022-08-03T21:29:16.797Z,30.80
2022-08-03T21:31:44.087Z,30.80
2022-08-03T21:34:11.065Z,30.70
2022-08-03T21:36:38.146Z,30.60
2022-08-03T21:39:08.077Z,30.50
2022-08-03T21:41:36.374Z,30.50
2022-08-03T21:44:04.940Z,30.50
2022-08-03T21:46:40.739Z,30.40
2022-08-03T21:50:05.660Z,30.40
2022-08-03T21:51:59.545Z,30.30
2022-08-03T21:54:33.640Z,30.30
2022-08-03T21:57:04.822Z,30.20
2022-08-03T21:59:36.027Z,30.20
2022-08-03T22:02:03.343Z,30.30
2022-08-03T22:04:50.732Z,30.20
2022-08-03T22:07:22.038Z,30.20
2022-08-03T22:09:52.063Z,30.10
2022-08-03T22:12:24.132Z,30.10
2022-08-03T22:15:00.920Z,30.00
2022-08-03T22:17:54.849Z,30.00
2022-08-03T22:20:28.178Z,30.00
2022-08-03T22:22:58.598Z,29.80
2022-08-03T22:25:29.904Z,29.60
2022-08-03T22:28:01.696Z,29.60
2022-08-03T22:30:29.258Z,29.50
2022-08-03T22:32:57.502Z,29.40
2022-08-03T22:35:25.874Z,29.30
2022-08-03T22:37:57.831Z,29.20
2022-08-03T22:40:26.330Z,29.20
2022-08-03T22:42:54.303Z,29.20
2022-08-03T22:46:07.818Z,29.20
2022-08-03T22:48:08.506Z,29.10
2022-08-03T22:50:35.571Z,29.10
2022-08-03T22:53:02.595Z,29.10
2022-08-03T22:55:29.546Z,29.00
2022-08-03T22:57:56.610Z,29.00
2022-08-03T23:00:24.495Z,28.90
2022-08-03T23:02:53.665Z,28.90
2022-08-03T23:06:01.693Z,28.90
2022-08-03T23:08:14.663Z,28.80
2022-08-03T23:10:46.822Z,28.80
2022-08-03T23:13:17.010Z,28.70
2022-08-03T23:15:50.939Z,28.50
2022-08-03T23:18:20.762Z,28.50
2022-08-03T23:20:51.791Z,28.50
2022-08-03T23:23:19.965Z,28.50
2022-08-03T23:25:50.044Z,28.40
2022-08-03T23:28:19.389Z,28.30
2022-08-03T23:30:48.214Z,28.30
2022-08-03T23:33:16.440Z,28.30
2022-08-03T23:36:29.113Z,28.30
2022-08-03T23:38:48.427Z,28.20
2022-08-03T23:41:17.585Z,28.20
2022-08-03T23:43:52.329Z,28.10
2022-08-03T23:46:22.728Z,28.00
2022-08-03T23:48:51.112Z,28.00
2022-08-03T23:51:52.332Z,27.90
2022-08-03T23:54:48.051Z,27.90
2022-08-03T23:57:33.398Z,27.70
